Time;durP1;ratioP1;P1;durP2;ratioP2;P2;SDS_P1;SDS_P2;PMS_P1;PMS_P2;Temp;Humidity;BMP_temperature;BMP_pressure;BME280_temperature;BME280_humidity;BME280_pressure;Samples;Min_cycle;Max_cycle;Signal;HPM_P1;HPM_P2
2023/07/18 00:00:00;;;;;;;21.30;4.88;;;17.00;99.90;;;;;;4953616;29;20043;-68
2023/07/18 00:02:26;;;;;;;25.25;5.68;;;17.00;99.90;;;;;;4953613;29;20419;-68
2023/07/18 00:04:54;;;;;;;23.83;4.20;;;17.00;99.90;;;;;;4953374;28;20498;-68
2023/07/18 00:07:20;;;;;;;19.88;4.95;;;17.00;99.90;;;;;;4953454;28;20058;-68
2023/07/18 00:09:45;;;;;;;27.00;5.80;;;17.00;99.90;;;;;;4953658;29;20059;-69
2023/07/18 00:12:11;;;;;;;19.45;4.40;;;17.00;99.90;;;;;;4953764;29;20031;-69
2023/07/18 00:14:36;;;;;;;25.15;4.97;;;16.90;99.90;;;;;;4953513;29;20070;-69
2023/07/18 00:17:02;;;;;;;20.48;4.45;;;16.90;99.90;;;;;;4953201;29;20035;-71
2023/07/18 00:19:29;;;;;;;23.58;5.03;;;16.90;99.90;;;;;;4947795;29;20056;-69
2023/07/18 00:21:55;;;;;;;26.50;5.25;;;16.90;99.90;;;;;;4941232;29;20059;-69
2023/07/18 00:24:21;;;;;;;19.00;4.30;;;16.90;99.90;;;;;;4957024;28;20539;-68
2023/07/18 00:26:47;;;;;;;20.35;4.82;;;16.80;99.90;;;;;;4957083;29;20026;-68
2023/07/18 00:29:12;;;;;;;19.35;4.68;;;16.80;99.90;;;;;;4956790;28;20078;-68
2023/07/18 00:31:38;;;;;;;19.25;5.15;;;16.80;99.90;;;;;;4957334;28;20351;-69
2023/07/18 00:34:04;;;;;;;21.23;5.07;;;16.80;99.90;;;;;;4956981;29;20112;-68
2023/07/18 00:36:30;;;;;;;23.30;4.93;;;16.80;99.90;;;;;;4956696;28;20023;-69
2023/07/18 00:38:55;;;;;;;21.17;5.20;;;16.80;99.90;;;;;;4957057;29;20051;-69
2023/07/18 00:41:21;;;;;;;22.20;4.60;;;16.80;99.90;;;;;;4957144;29;20038;-69
2023/07/18 00:43:46;;;;;;;23.73;5.55;;;16.80;99.90;;;;;;4956356;28;20035;-69
2023/07/18 00:46:14;;;;;;;26.20;5.40;;;16.80;99.90;;;;;;4956786;28;20038;-69
2023/07/18 00:48:40;;;;;;;15.18;4.32;;;16.80;99.90;;;;;;4956590;28;20031;-68
2023/07/18 00:51:09;;;;;;;21.13;5.05;;;16.80;99.90;;;;;;4956476;29;20112;-68
2023/07/18 00:53:39;;;;;;;19.10;4.80;;;16.80;99.90;;;;;;4956812;28;20071;-69
2023/07/18 00:56:04;;;;;;;22.05;5.05;;;16.80;99.90;;;;;;4955016;29;20050;-68
2023/07/18 00:58:31;;;;;;;20.80;4.57;;;16.70;99.90;;;;;;4956563;28;20419;-69
2023/07/18 01:00:56;;;;;;;25.00;5.10;;;16.80;99.90;;;;;;4956491;29;20027;-68
2023/07/18 01:03:22;;;;;;;20.98;4.85;;;16.80;99.90;;;;;;4956510;28;20037;-69
2023/07/18 01:05:48;;;;;;;20.75;4.68;;;16.80;99.90;;;;;;4956429;29;20475;-68
2023/07/18 01:08:13;;;;;;;23.15;5.00;;;16.80;99.90;;;;;;4956164;29;20110;-69
2023/07/18 01:10:40;;;;;;;20.05;4.60;;;16.80;99.90;;;;;;4955002;29;20027;-68
2023/07/18 01:13:05;;;;;;;17.88;4.10;;;16.70;99.90;;;;;;4940097;29;20044;-68
2023/07/18 01:15:33;;;;;;;22.23;4.88;;;16.70;99.90;;;;;;4951315;29;20026;-68
2023/07/18 01:18:02;;;;;;;21.83;4.93;;;16.70;99.90;;;;;;4955489;28;20047;-67
2023/07/18 01:20:28;;;;;;;25.55;4.75;;;16.60;99.90;;;;;;4956365;28;20114;-68
2023/07/18 01:22:57;;;;;;;20.83;4.65;;;16.60;99.90;;;;;;4956102;28;20084;-68
2023/07/18 01:25:23;;;;;;;20.83;4.18;;;16.60;99.90;;;;;;4955983;28;20082;-69
2023/07/18 01:27:51;;;;;;;19.50;4.88;;;16.60;99.90;;;;;;4955795;29;20035;-69
2023/07/18 01:30:19;;;;;;;21.98;4.45;;;16.60;99.90;;;;;;4955852;28;20024;-69
2023/07/18 01:32:48;;;;;;;26.65;4.68;;;16.60;99.90;;;;;;4954798;29;20078;-69
2023/07/18 01:35:14;;;;;;;21.23;4.30;;;16.60;99.90;;;;;;4955521;28;20074;-69
2023/07/18 01:37:40;;;;;;;17.55;4.05;;;16.60;99.90;;;;;;4955637;28;20039;-69
2023/07/18 01:40:12;;;;;;;22.10;4.60;;;16.60;99.90;;;;;;4955722;28;20521;-69
2023/07/18 01:42:38;;;;;;;21.40;4.70;;;16.70;99.90;;;;;;4955815;28;20368;-69
2023/07/18 01:45:04;;;;;;;21.10;4.95;;;16.60;99.90;;;;;;4955749;28;20411;-69
2023/07/18 01:47:33;;;;;;;17.00;4.30;;;16.60;99.90;;;;;;4955619;28;20034;-68
2023/07/18 01:50:04;;;;;;;22.75;4.35;;;16.60;99.90;;;;;;4955545;29;20024;-68
2023/07/18 01:52:30;;;;;;;27.50;5.22;;;16.60;99.90;;;;;;4955594;28;20039;-68
2023/07/18 01:54:59;;;;;;;19.25;4.25;;;16.60;99.90;;;;;;4955602;28;20111;-68
2023/07/18 01:57:52;;;;;;;20.25;5.40;;;16.60;99.90;;;;;;4944961;28;20459;-68
2023/07/18 02:00:19;;;;;;;21.73;5.10;;;16.50;99.90;;;;;;4940207;29;20035;-68
2023/07/18 02:02:52;;;;;;;17.73;4.40;;;16.50;99.90;;;;;;4954892;28;20529;-69
2023/07/18 02:05:23;;;;;;;23.38;4.97;;;16.50;99.90;;;;;;4955552;28;20059;-69
2023/07/18 02:07:49;;;;;;;21.23;4.38;;;16.50;99.90;;;;;;4955306;28;20043;-69
2023/07/18 02:10:20;;;;;;;20.55;4.55;;;16.40;99.90;;;;;;4955436;29;20027;-69
2023/07/18 02:12:49;;;;;;;19.63;4.95;;;16.40;99.90;;;;;;4955415;28;20371;-69
2023/07/18 02:15:15;;;;;;;21.42;4.97;;;16.40;99.90;;;;;;4954744;28;20506;-69
2023/07/18 02:17:42;;;;;;;23.35;4.68;;;16.40;99.90;;;;;;4955433;29;20039;-69
2023/07/18 02:20:11;;;;;;;21.73;4.60;;;16.40;99.90;;;;;;4955072;28;20032;-69
2023/07/18 02:22:38;;;;;;;27.08;5.93;;;16.40;99.90;;;;;;4955307;28;20028;-69
2023/07/18 02:25:04;;;;;;;20.60;4.88;;;16.40;99.90;;;;;;4955095;28;20035;-69
2023/07/18 02:27:32;;;;;;;17.25;4.68;;;16.40;99.90;;;;;;4955163;28;20034;-68
2023/07/18 02:30:00;;;;;;;20.85;5.30;;;16.40;99.90;;;;;;4954497;28;20468;-69
2023/07/18 02:32:29;;;;;;;23.02;7.68;;;16.40;99.90;;;;;;4954904;28;20151;-68
2023/07/18 02:34:55;;;;;;;20.33;5.40;;;16.40;99.90;;;;;;4953512;29;20031;-69
2023/07/18 02:37:23;;;;;;;24.05;6.13;;;16.40;99.90;;;;;;4954860;28;20042;-68
2023/07/18 02:39:48;;;;;;;27.27;8.45;;;16.30;99.90;;;;;;4954460;28;20130;-68
2023/07/18 02:42:14;;;;;;;17.42;5.50;;;16.30;99.90;;;;;;4954461;28;20495;-69
2023/07/18 02:44:40;;;;;;;21.25;5.82;;;16.30;99.90;;;;;;4954571;28;20038;-68
2023/07/18 02:47:05;;;;;;;23.65;6.55;;;16.30;99.90;;;;;;4953845;28;20035;-69
2023/07/18 02:49:31;;;;;;;17.10;5.70;;;16.30;99.90;;;;;;4954674;29;20039;-68
2023/07/18 02:51:57;;;;;;;25.27;6.10;;;16.20;99.90;;;;;;4954564;28;20051;-68
2023/07/18 02:54:22;;;;;;;23.75;5.95;;;16.20;99.90;;;;;;4953211;28;20019;-68
2023/07/18 02:56:49;;;;;;;19.52;5.60;;;16.20;99.90;;;;;;4954067;28;20039;-69
2023/07/18 02:59:20;;;;;;;21.05;5.75;;;16.20;99.90;;;;;;4954504;28;20027;-68
2023/07/18 03:01:54;;;;;;;20.50;5.85;;;16.20;99.90;;;;;;4953198;29;20031;-68
2023/07/18 03:04:20;;;;;;;24.83;5.95;;;16.20;99.90;;;;;;4954373;28;20038;-68
2023/07/18 03:06:47;;;;;;;22.02;5.78;;;16.10;99.90;;;;;;4954292;29;20089;-69
2023/07/18 03:09:16;;;;;;;21.15;6.32;;;16.10;99.90;;;;;;4954034;28;20039;-68
2023/07/18 03:11:42;;;;;;;19.90;5.30;;;16.10;99.90;;;;;;4954114;28;20046;-68
2023/07/18 03:14:08;;;;;;;21.75;5.93;;;16.10;99.90;;;;;;4954232;28;20130;-68
2023/07/18 03:16:34;;;;;;;21.30;6.03;;;16.10;99.90;;;;;;4954171;28;20058;-69
2023/07/18 03:18:59;;;;;;;25.40;5.65;;;16.10;99.90;;;;;;4954075;28;20082;-69
2023/07/18 03:21:25;;;;;;;19.55;5.78;;;16.00;99.90;;;;;;4954505;29;20045;-68
2023/07/18 03:23:53;;;;;;;32.00;6.70;;;16.00;99.90;;;;;;4954111;28;20028;-68
2023/07/18 03:26:20;;;;;;;24.10;5.78;;;16.00;99.90;;;;;;4954053;28;20046;-68
2023/07/18 03:28:46;;;;;;;20.58;5.43;;;16.00;99.90;;;;;;4954046;28;20027;-69
2023/07/18 03:31:12;;;;;;;24.73;5.55;;;16.00;99.90;;;;;;4953766;29;20031;-68
2023/07/18 03:33:37;;;;;;;21.30;4.97;;;16.00;99.90;;;;;;4954096;29;20031;-68
2023/07/18 03:36:04;;;;;;;20.90;6.00;;;16.00;99.90;;;;;;4952471;29;20518;-68
2023/07/18 03:38:30;;;;;;;21.73;4.53;;;16.00;99.90;;;;;;4953699;28;20091;-68
2023/07/18 03:40:58;;;;;;;21.90;6.05;;;16.00;99.90;;;;;;4953468;28;20058;-69
2023/07/18 03:43:23;;;;;;;21.45;5.20;;;16.00;99.90;;;;;;4953923;28;20031;-68
2023/07/18 03:45:50;;;;;;;16.13;5.03;;;15.90;99.90;;;;;;4953804;28;20041;-68
2023/07/18 03:48:15;;;;;;;21.05;4.57;;;15.90;99.90;;;;;;4953794;28;20140;-69
2023/07/18 03:50:41;;;;;;;19.63;5.00;;;15.90;99.90;;;;;;4953857;29;20110;-68
2023/07/18 03:53:06;;;;;;;21.60;5.03;;;15.80;99.90;;;;;;4953588;29;20141;-68
2023/07/18 03:55:32;;;;;;;16.52;3.67;;;15.80;99.90;;;;;;4953462;29;20027;-68
2023/07/18 03:57:57;;;;;;;18.08;4.28;;;15.80;99.90;;;;;;4955957;28;20463;-68
2023/07/18 04:00:23;;;;;;;17.60;4.07;;;15.80;99.90;;;;;;4957505;28;20486;-68
2023/07/18 04:02:49;;;;;;;19.13;3.90;;;15.70;99.90;;;;;;4957492;28;20027;-68
2023/07/18 04:05:17;;;;;;;18.50;4.57;;;15.70;99.90;;;;;;4957515;29;20042;-68
2023/07/18 04:07:44;;;;;;;20.23;4.13;;;15.70;99.90;;;;;;4957404;28;20027;-68
2023/07/18 04:10:13;;;;;;;19.08;4.18;;;15.70;99.90;;;;;;4957589;28;20031;-68
2023/07/18 04:12:42;;;;;;;19.02;5.35;;;15.80;99.90;;;;;;4957872;28;20034;-69
2023/07/18 04:15:09;;;;;;;16.02;4.07;;;15.80;99.90;;;;;;4947868;28;20032;-69
2023/07/18 04:17:35;;;;;;;16.30;4.20;;;15.90;99.90;;;;;;4952622;29;20094;-69
2023/07/18 04:20:00;;;;;;;17.50;3.95;;;15.90;99.90;;;;;;4957372;28;20039;-68
2023/07/18 04:22:29;;;;;;;13.02;3.53;;;15.90;99.90;;;;;;4956985;28;20019;-68
2023/07/18 04:24:55;;;;;;;18.33;3.80;;;16.00;99.90;;;;;;4957390;28;20035;-69
2023/07/18 04:27:21;;;;;;;10.45;3.80;;;16.00;99.90;;;;;;4957205;28;20034;-69
2023/07/18 04:29:46;;;;;;;18.88;4.05;;;16.10;99.90;;;;;;4957125;28;20114;-68
2023/07/18 04:32:12;;;;;;;16.25;3.88;;;16.20;99.90;;;;;;4957035;28;20023;-68
2023/07/18 04:34:37;;;;;;;14.20;3.72;;;16.30;99.90;;;;;;4957271;29;20027;-69
2023/07/18 04:37:03;;;;;;;14.45;3.28;;;16.40;99.90;;;;;;4956633;29;20046;-68
2023/07/18 04:39:30;;;;;;;11.48;3.00;;;16.50;99.90;;;;;;4957332;29;20443;-68
2023/07/18 04:41:56;;;;;;;17.08;3.80;;;16.50;99.90;;;;;;4957341;28;20051;-69
2023/07/18 04:44:22;;;;;;;14.85;3.03;;;16.60;99.90;;;;;;4957357;28;20052;-68
2023/07/18 04:46:48;;;;;;;14.13;3.67;;;16.70;99.90;;;;;;4957012;28;20376;-68
2023/07/18 04:49:13;;;;;;;13.70;3.22;;;16.70;99.90;;;;;;4956804;29;20037;-68
2023/07/18 04:51:39;;;;;;;10.23;3.28;;;16.70;99.90;;;;;;4956500;29;20579;-68
2023/07/18 04:54:05;;;;;;;13.77;3.50;;;16.80;99.90;;;;;;4956674;28;20451;-68
2023/07/18 04:56:30;;;;;;;13.48;3.10;;;16.80;99.90;;;;;;4956762;29;20031;-68
2023/07/18 04:58:56;;;;;;;10.82;3.50;;;16.90;99.90;;;;;;4956940;29;20036;-68
2023/07/18 05:01:22;;;;;;;12.98;2.72;;;17.00;99.90;;;;;;4956861;28;20460;-68
2023/07/18 05:03:48;;;;;;;12.82;3.38;;;17.00;99.90;;;;;;4956324;28;20114;-68
2023/07/18 05:06:13;;;;;;;17.60;3.67;;;17.20;99.90;;;;;;4950025;28;20035;-68
2023/07/18 05:08:39;;;;;;;12.13;3.33;;;17.20;99.90;;;;;;4955487;28;20034;-68
2023/07/18 05:11:04;;;;;;;11.43;3.15;;;17.20;99.90;;;;;;4951616;29;20035;-67
2023/07/18 05:13:30;;;;;;;11.15;2.90;;;17.20;99.90;;;;;;4946547;29;20020;-67
2023/07/18 05:16:00;;;;;;;9.60;3.17;;;17.10;99.90;;;;;;4954756;29;20055;-68
2023/07/18 05:18:25;;;;;;;11.45;2.90;;;17.00;99.90;;;;;;4929033;29;20293;-68
2023/07/18 05:20:54;;;;;;;14.65;3.70;;;17.00;99.90;;;;;;4955781;29;20055;-69
2023/07/18 05:23:20;;;;;;;9.30;3.22;;;16.90;99.90;;;;;;4956023;28;20051;-68
2023/07/18 05:25:45;;;;;;;11.00;3.40;;;16.90;99.90;;;;;;4955853;29;20035;-68
2023/07/18 05:28:11;;;;;;;14.27;3.95;;;16.90;99.90;;;;;;4956075;29;20451;-68
2023/07/18 05:30:36;;;;;;;13.55;3.38;;;16.90;99.90;;;;;;4955955;29;20034;-69
2023/07/18 05:33:02;;;;;;;12.32;3.60;;;17.00;99.90;;;;;;4955826;29;20023;-68
2023/07/18 05:35:28;;;;;;;10.48;2.97;;;17.10;99.90;;;;;;4955918;29;20035;-68
2023/07/18 05:37:54;;;;;;;13.77;3.80;;;17.20;99.90;;;;;;4955913;28;20051;-68
2023/07/18 05:40:20;;;;;;;11.50;3.53;;;17.50;99.90;;;;;;4956349;28;20019;-69
2023/07/18 05:42:46;;;;;;;18.83;4.50;;;17.70;99.90;;;;;;4955931;28;20047;-68
2023/07/18 05:45:12;;;;;;;14.95;3.38;;;18.00;99.90;;;;;;4956132;28;20458;-68
2023/07/18 05:47:38;;;;;;;13.48;3.20;;;18.30;99.90;;;;;;4955631;28;20046;-68
2023/07/18 05:50:06;;;;;;;12.18;3.17;;;18.60;99.90;;;;;;4955444;28;20117;-68
2023/07/18 05:52:32;;;;;;;8.52;3.45;;;18.70;99.90;;;;;;4955284;28;20027;-68
2023/07/18 05:54:57;;;;;;;14.23;3.55;;;18.70;99.90;;;;;;4955496;28;20097;-68
2023/07/18 05:57:23;;;;;;;14.48;3.72;;;18.80;99.90;;;;;;4954392;29;20464;-68
2023/07/18 05:59:49;;;;;;;14.85;3.75;;;19.10;99.90;;;;;;4955346;28;20038;-69
2023/07/18 06:02:15;;;;;;;11.35;4.00;;;19.40;99.90;;;;;;4955269;28;20102;-68
2023/07/18 06:04:40;;;;;;;9.70;2.90;;;20.10;99.90;;;;;;4955558;28;20031;-69
2023/07/18 06:07:06;;;;;;;13.52;3.30;;;20.70;99.90;;;;;;4950309;29;20039;-68
2023/07/18 06:09:32;;;;;;;13.73;3.33;;;21.50;99.90;;;;;;4950566;29;20444;-68
2023/07/18 06:11:58;;;;;;;11.60;3.33;;;22.30;99.90;;;;;;4955559;28;20047;-68
2023/07/18 06:14:24;;;;;;;18.52;4.18;;;23.20;99.90;;;;;;4954259;28;20038;-68
2023/07/18 06:16:50;;;;;;;10.10;2.72;;;23.90;99.90;;;;;;4954796;28;20031;-68
2023/07/18 06:19:15;;;;;;;10.50;2.90;;;24.50;99.90;;;;;;4953772;28;20035;-67
2023/07/18 06:21:41;;;;;;;11.07;2.45;;;24.90;99.90;;;;;;4935250;29;20400;-68
2023/07/18 06:24:07;;;;;;;8.63;2.63;;;25.10;99.90;;;;;;4954307;29;20031;-68
2023/07/18 06:26:32;;;;;;;10.65;2.90;;;25.30;99.90;;;;;;4954738;28;20034;-68
2023/07/18 06:28:58;;;;;;;8.93;2.67;;;25.70;99.50;;;;;;4954883;29;20028;-68
2023/07/18 06:31:24;;;;;;;12.38;2.83;;;26.00;98.70;;;;;;4954787;29;20034;-69
2023/07/18 06:33:49;;;;;;;10.40;2.97;;;26.00;98.60;;;;;;4954880;29;20046;-68
2023/07/18 06:36:15;;;;;;;12.02;2.88;;;25.70;98.80;;;;;;4952115;28;20050;-68
2023/07/18 06:38:41;;;;;;;12.48;3.90;;;25.60;98.90;;;;;;4942507;29;20063;-68
2023/07/18 06:41:07;;;;;;;12.85;3.65;;;25.70;98.80;;;;;;4946596;29;20042;-68
2023/07/18 06:43:33;;;;;;;10.95;2.88;;;26.10;98.40;;;;;;4954875;28;20391;-69
2023/07/18 06:45:59;;;;;;;10.55;2.70;;;26.90;97.50;;;;;;4941560;29;20028;-69
2023/07/18 06:48:25;;;;;;;8.20;2.80;;;27.40;96.80;;;;;;4946544;28;20487;-69
2023/07/18 06:50:53;;;;;;;12.45;3.13;;;27.50;96.40;;;;;;4954635;29;20023;-68
2023/07/18 06:53:22;;;;;;;10.80;3.00;;;27.50;96.20;;;;;;4954614;28;20031;-67
2023/07/18 06:55:49;;;;;;;10.30;3.28;;;27.60;96.10;;;;;;4954225;29;20456;-68
2023/07/18 06:58:18;;;;;;;10.93;2.90;;;28.00;96.00;;;;;;4954103;28;20039;-68
2023/07/18 07:00:45;;;;;;;15.00;3.53;;;28.70;95.10;;;;;;4953585;28;20118;-69
2023/07/18 07:03:11;;;;;;;5.80;2.40;;;29.20;94.40;;;;;;4954549;28;20114;-68
2023/07/18 07:05:38;;;;;;;11.52;3.38;;;29.30;94.30;;;;;;4954720;28;20034;-68
2023/07/18 07:08:12;;;;;;;10.93;2.78;;;29.30;94.00;;;;;;4953379;29;20035;-68
2023/07/18 07:10:39;;;;;;;13.60;4.07;;;29.40;93.80;;;;;;4954710;28;20447;-68
2023/07/18 07:13:05;;;;;;;7.57;2.22;;;29.70;93.70;;;;;;4954228;28;20463;-68
2023/07/18 07:15:32;;;;;;;12.00;3.42;;;29.80;93.30;;;;;;4954335;28;20027;-68
2023/07/18 07:17:58;;;;;;;11.88;3.20;;;29.30;93.90;;;;;;4947044;28;20078;-69
2023/07/18 07:20:25;;;;;;;12.18;3.60;;;29.30;94.10;;;;;;4949524;28;20020;-69
2023/07/18 07:22:52;;;;;;;10.27;2.80;;;29.30;94.00;;;;;;4954311;28;20117;-69
2023/07/18 07:25:19;;;;;;;12.07;3.00;;;29.50;93.70;;;;;;4953543;28;20119;-68
2023/07/18 07:27:46;;;;;;;13.60;3.22;;;29.60;93.60;;;;;;4953514;28;20395;-68
2023/07/18 07:30:15;;;;;;;13.48;2.75;;;29.40;93.80;;;;;;4923236;29;20019;-67
2023/07/18 07:32:47;;;;;;;11.82;3.25;;;29.00;94.00;;;;;;4953772;28;20034;-68
2023/07/18 07:35:13;;;;;;;10.30;2.38;;;29.00;94.10;;;;;;4954371;28;20459;-68
2023/07/18 07:37:40;;;;;;;12.18;2.78;;;28.90;94.10;;;;;;4953759;28;20051;-67
2023/07/18 07:40:09;;;;;;;8.43;2.45;;;28.70;94.30;;;;;;4953448;28;20466;-67
2023/07/18 07:42:34;;;;;;;10.80;3.42;;;28.80;94.10;;;;;;4947601;28;20046;-67
2023/07/18 07:45:00;;;;;;;13.93;3.20;;;28.80;94.30;;;;;;4939745;29;20032;-68
2023/07/18 07:47:26;;;;;;;13.65;3.30;;;28.60;94.60;;;;;;4947870;29;20043;-70
2023/07/18 07:49:51;;;;;;;12.98;3.60;;;28.20;94.80;;;;;;4953641;29;20435;-69
2023/07/18 07:52:17;;;;;;;9.93;2.80;;;27.40;95.40;;;;;;4954249;29;20027;-69
2023/07/18 07:54:44;;;;;;;9.63;2.50;;;26.90;96.20;;;;;;4953863;29;20367;-69
2023/07/18 07:57:10;;;;;;;12.65;2.83;;;26.60;96.50;;;;;;4953812;28;20039;-69
2023/07/18 07:59:36;;;;;;;12.60;3.13;;;26.10;97.20;;;;;;4953897;28;20019;-69
2023/07/18 08:02:01;;;;;;;8.20;2.60;;;25.70;97.90;;;;;;4953857;29;20035;-69
2023/07/18 08:04:27;;;;;;;9.73;2.60;;;25.60;98.20;;;;;;4953679;29;20042;-69
2023/07/18 08:06:55;;;;;;;9.13;3.50;;;25.50;98.00;;;;;;4953841;29;20028;-70
2023/07/18 08:09:21;;;;;;;10.05;2.38;;;25.40;98.40;;;;;;4953837;28;20498;-69
2023/07/18 08:11:48;;;;;;;12.65;2.60;;;25.40;98.60;;;;;;4953855;28;20067;-70
2023/07/18 08:14:14;;;;;;;15.77;2.53;;;25.40;99.00;;;;;;4953709;28;20062;-69
2023/07/18 08:16:40;;;;;;;12.07;2.45;;;25.60;98.40;;;;;;4953670;28;20075;-69
2023/07/18 08:19:07;;;;;;;11.05;2.33;;;25.60;98.00;;;;;;4953395;28;20047;-68
2023/07/18 08:21:33;;;;;;;13.02;2.33;;;25.70;97.70;;;;;;4953431;28;20058;-67
2023/07/18 08:23:59;;;;;;;7.53;2.28;;;25.80;98.00;;;;;;4953281;28;20035;-68
2023/07/18 08:26:25;;;;;;;10.98;2.85;;;26.10;98.00;;;;;;4953334;28;20035;-68
2023/07/18 08:28:50;;;;;;;9.15;2.17;;;26.60;96.90;;;;;;4953730;29;20038;-68
2023/07/18 08:31:16;;;;;;;10.63;3.00;;;26.90;96.40;;;;;;4953434;29;20085;-68
2023/07/18 08:33:41;;;;;;;13.07;3.55;;;27.60;96.30;;;;;;4953485;29;20105;-67
2023/07/18 08:36:07;;;;;;;13.50;3.03;;;28.90;95.70;;;;;;4953489;28;20020;-68
2023/07/18 08:38:32;;;;;;;13.90;2.40;;;30.10;94.30;;;;;;4952996;28;20058;-68
2023/07/18 08:40:58;;;;;;;10.38;2.65;;;31.00;92.90;;;;;;4953353;29;20036;-69
2023/07/18 08:43:24;;;;;;;17.50;3.40;;;31.00;93.10;;;;;;4954758;28;20119;-68
2023/07/18 08:45:51;;;;;;;10.27;2.20;;;30.60;92.80;;;;;;4956484;28;20031;-68
2023/07/18 08:48:17;;;;;;;10.40;2.70;;;30.10;93.20;;;;;;4956619;28;20497;-69
2023/07/18 08:50:43;;;;;;;11.15;2.97;;;29.50;93.60;;;;;;4956848;29;20027;-69
2023/07/18 08:53:09;;;;;;;16.85;3.67;;;29.20;94.00;;;;;;4956431;28;20031;-68
2023/07/18 08:55:36;;;;;;;12.02;2.58;;;29.00;94.60;;;;;;4956232;29;20031;-69
2023/07/18 08:58:02;;;;;;;11.93;2.38;;;28.90;94.30;;;;;;4956926;28;20094;-69
2023/07/18 09:00:28;;;;;;;12.38;2.92;;;28.60;94.70;;;;;;4957006;28;20090;-68
2023/07/18 09:02:54;;;;;;;11.88;2.72;;;28.50;95.00;;;;;;4956800;28;20459;-68
2023/07/18 09:05:36;;;;;;;15.10;2.55;;;28.50;94.80;;;;;;4957068;28;20087;-68
2023/07/18 09:08:04;;;;;;;14.13;3.15;;;28.50;94.80;;;;;;4956622;28;20039;-68
2023/07/18 09:10:30;;;;;;;13.27;2.47;;;28.60;94.80;;;;;;4956616;28;20027;-68
2023/07/18 09:13:02;;;;;;;10.50;2.63;;;28.70;94.60;;;;;;4956192;28;20031;-69
2023/07/18 09:15:28;;;;;;;8.50;2.47;;;28.90;94.20;;;;;;4956505;28;20023;-69
2023/07/18 09:17:58;;;;;;;11.90;2.65;;;29.20;94.20;;;;;;4956162;28;20035;-69
2023/07/18 09:20:25;;;;;;;14.48;2.33;;;29.50;94.00;;;;;;4956074;28;20039;-68
2023/07/18 09:22:56;;;;;;;11.98;2.53;;;30.10;93.60;;;;;;4946748;29;20487;-69
2023/07/18 09:25:23;;;;;;;10.27;1.97;;;31.10;92.50;;;;;;4945247;28;20103;-69
2023/07/18 09:27:50;;;;;;;10.98;2.08;;;31.70;91.90;;;;;;4937152;29;20130;-69
2023/07/18 09:30:36;;;;;;;11.52;2.40;;;31.90;91.30;;;;;;4933985;29;20116;-70
2023/07/18 09:33:08;;;;;;;10.02;2.30;;;31.90;90.90;;;;;;4935730;29;20065;-68
2023/07/18 09:35:38;;;;;;;;;;;32.10;90.70;;;;;;4935601;29;20043;-69
2023/07/18 09:38:06;;;;;;;14.15;2.55;;;32.20;89.70;;;;;;4937066;29;20256;-68
2023/07/18 09:40:31;;;;;;;10.02;1.85;;;32.20;90.00;;;;;;4934916;29;20078;-69
2023/07/18 09:43:00;;;;;;;8.02;2.20;;;32.40;90.00;;;;;;4936415;29;20032;-69
2023/07/18 09:45:27;;;;;;;6.53;1.98;;;32.50;89.70;;;;;;4936235;29;20054;-69
2023/07/18 09:47:52;;;;;;;9.30;2.65;;;32.20;89.40;;;;;;4937588;29;20035;-69
2023/07/18 09:50:18;;;;;;;11.57;2.47;;;31.80;90.10;;;;;;4954823;29;20106;-69
2023/07/18 09:52:49;;;;;;;10.35;2.45;;;31.60;90.30;;;;;;4953521;29;20035;-69
2023/07/18 09:55:21;;;;;;;8.75;1.92;;;31.60;90.40;;;;;;4954039;28;20387;-69
2023/07/18 09:57:48;;;;;;;6.60;1.65;;;31.50;90.10;;;;;;4955104;28;20492;-68
2023/07/18 10:00:17;;;;;;;7.82;2.10;;;31.40;89.80;;;;;;4954668;28;20051;-67
2023/07/18 10:02:43;;;;;;;7.68;1.67;;;31.40;90.40;;;;;;4955121;29;20045;-70
2023/07/18 10:05:10;;;;;;;12.55;2.30;;;31.50;90.10;;;;;;4955423;29;20446;-68
2023/07/18 10:07:40;;;;;;;8.40;2.55;;;31.60;90.20;;;;;;4955277;28;20035;-68
2023/07/18 10:10:10;;;;;;;8.95;2.47;;;31.20;90.20;;;;;;4954922;28;20448;-69
2023/07/18 10:12:57;;;;;;;17.48;4.43;;;31.00;90.90;;;;;;4955294;28;20101;-70
2023/07/18 10:15:23;;;;;;;22.85;4.32;;;30.90;90.50;;;;;;4954516;28;20475;-68
2023/07/18 10:17:49;;;;;;;13.23;3.13;;;30.90;90.50;;;;;;4955314;28;20042;-69
2023/07/18 10:20:22;;;;;;;12.40;3.15;;;31.10;90.60;;;;;;4955089;28;20463;-70
2023/07/18 10:22:57;;;;;;;10.50;2.58;;;31.40;90.60;;;;;;4954967;28;20019;-69
2023/07/18 10:25:25;;;;;;;9.38;2.40;;;31.60;90.00;;;;;;4955609;28;20074;-69
2023/07/18 10:27:51;;;;;;;11.75;2.35;;;31.70;89.20;;;;;;4955167;28;20428;-68
2023/07/18 10:30:22;;;;;;;7.80;1.77;;;31.90;89.40;;;;;;4955185;28;20123;-69
2023/07/18 10:32:56;;;;;;;6.40;1.88;;;31.80;87.80;;;;;;4955320;28;20055;-70
2023/07/18 10:35:24;;;;;;;7.72;1.52;;;31.50;88.50;;;;;;4954741;28;20480;-69
2023/07/18 10:38:03;;;;;;;9.60;1.67;;;31.40;88.20;;;;;;4954713;28;20126;-69
2023/07/18 10:40:43;;;;;;;10.27;1.83;;;31.40;89.50;;;;;;4954647;28;20028;-69
2023/07/18 10:43:10;;;;;;;7.30;1.88;;;31.60;88.90;;;;;;4953778;28;20042;-69
2023/07/18 10:45:45;;;;;;;7.38;1.67;;;32.00;87.80;;;;;;4952842;28;20667;-69
2023/07/18 10:48:16;;;;;;;8.00;1.40;;;32.40;87.60;;;;;;4923731;29;20380;-69
2023/07/18 10:50:44;;;;;;;6.82;1.83;;;32.60;87.60;;;;;;4953150;29;20470;-71
2023/07/18 10:53:14;;;;;;;7.93;2.38;;;32.80;85.80;;;;;;4955005;28;20027;-67
2023/07/18 10:55:45;;;;;;;8.02;1.75;;;33.00;85.50;;;;;;4951518;28;20023;-69
2023/07/18 10:58:16;;;;;;;7.18;1.88;;;33.50;84.70;;;;;;4937951;29;20074;-68
2023/07/18 11:00:42;;;;;;;5.47;1.70;;;33.70;82.80;;;;;;4953754;28;20121;-69
2023/07/18 11:03:22;;;;;;;5.00;1.73;;;33.70;83.60;;;;;;4954841;28;20098;-69
2023/07/18 11:05:49;;;;;;;6.85;2.88;;;34.10;82.40;;;;;;4954074;28;20054;-69
2023/07/18 11:08:25;;;;;;;10.52;3.22;;;34.20;82.30;;;;;;4953993;28;20042;-69
2023/07/18 11:10:57;;;;;;;7.35;2.88;;;34.20;82.00;;;;;;4953965;28;20042;-68
2023/07/18 11:13:33;;;;;;;11.27;3.97;;;33.80;81.90;;;;;;4954311;28;20035;-69
2023/07/18 11:16:09;;;;;;;11.00;3.90;;;33.30;82.60;;;;;;4954460;28;20038;-68
2023/07/18 11:18:36;;;;;;;11.80;4.10;;;33.50;82.40;;;;;;4954592;28;20039;-68
2023/07/18 11:21:03;;;;;;;5.57;1.73;;;34.00;81.50;;;;;;4953197;28;20038;-69
2023/07/18 11:23:30;;;;;;;12.07;3.78;;;34.60;80.60;;;;;;4954627;28;20043;-67
2023/07/18 11:25:56;;;;;;;7.07;1.92;;;35.50;81.10;;;;;;4954101;28;20031;-70
2023/07/18 11:28:21;;;;;;;5.47;2.65;;;36.20;78.40;;;;;;4954278;28;20066;-70
2023/07/18 11:30:47;;;;;;;9.15;2.58;;;36.70;76.30;;;;;;4953985;28;20035;-71
2023/07/18 11:33:13;;;;;;;5.43;1.80;;;37.30;74.70;;;;;;4954031;28;20031;-70
2023/07/18 11:35:45;;;;;;;8.88;2.00;;;37.50;75.10;;;;;;4954200;28;20488;-71
2023/07/18 11:38:11;;;;;;;6.55;2.50;;;37.80;75.20;;;;;;4922568;29;20451;-71
2023/07/18 11:40:37;;;;;;;6.35;2.58;;;37.90;73.10;;;;;;4954366;28;20043;-70
2023/07/18 11:43:03;;;;;;;7.47;2.03;;;37.70;73.40;;;;;;4954011;29;20391;-70
2023/07/18 11:45:29;;;;;;;6.75;1.70;;;37.70;73.40;;;;;;4954195;28;20382;-71
2023/07/18 11:47:59;;;;;;;6.95;1.67;;;38.00;73.10;;;;;;4953108;28;20475;-72
2023/07/18 11:50:29;;;;;;;5.38;2.13;;;38.10;73.10;;;;;;4953942;28;20027;-71
2023/07/18 11:52:56;;;;;;;5.78;1.77;;;38.00;73.00;;;;;;4954198;28;20539;-70
2023/07/18 11:55:22;;;;;;;4.28;1.38;;;38.00;72.60;;;;;;4953655;28;20038;-70
2023/07/18 11:57:49;;;;;;;5.88;1.83;;;38.20;71.20;;;;;;4954088;28;20081;-70
2023/07/18 12:00:15;;;;;;;6.97;2.58;;;38.60;71.40;;;;;;4954079;28;20034;-70
2023/07/18 12:02:43;;;;;;;4.63;1.10;;;38.60;70.70;;;;;;4953802;28;20031;-70
2023/07/18 12:05:10;;;;;;;5.60;1.63;;;38.50;70.10;;;;;;4953908;28;20043;-70
2023/07/18 12:07:36;;;;;;;7.40;2.38;;;38.50;71.00;;;;;;4954069;28;20031;-70
2023/07/18 12:10:02;;;;;;;4.78;2.00;;;38.50;71.10;;;;;;4953962;28;20114;-70
2023/07/18 12:12:28;;;;;;;6.40;1.70;;;38.40;70.00;;;;;;4953798;28;20440;-70
2023/07/18 12:14:53;;;;;;;4.93;1.30;;;38.30;69.00;;;;;;4953818;29;20059;-70
2023/07/18 12:17:19;;;;;;;7.13;1.48;;;38.40;69.80;;;;;;4953338;28;20070;-70
2023/07/18 12:19:45;;;;;;;6.80;2.08;;;38.70;67.60;;;;;;4957170;28;20071;-70
2023/07/18 12:22:12;;;;;;;7.20;2.13;;;38.90;68.90;;;;;;4956461;29;20027;-71
2023/07/18 12:24:37;;;;;;;5.63;1.75;;;38.60;67.70;;;;;;4957593;28;20030;-71
2023/07/18 12:27:04;;;;;;;9.00;2.38;;;38.70;68.30;;;;;;4957837;29;20403;-71
2023/07/18 12:29:30;;;;;;;5.15;1.70;;;38.40;67.80;;;;;;4957475;28;20024;-71
2023/07/18 12:31:56;;;;;;;5.13;1.52;;;38.00;68.30;;;;;;4957034;28;20038;-70
2023/07/18 12:34:22;;;;;;;4.30;1.50;;;38.20;67.30;;;;;;4957797;29;20520;-71
2023/07/18 12:36:48;;;;;;;2.47;1.40;;;38.30;67.20;;;;;;4957228;28;20028;-71
2023/07/18 12:39:14;;;;;;;3.65;1.40;;;38.40;66.60;;;;;;4951507;28;20054;-70